createdAt,value
2016-12-12T00:00:05.573Z,24.26
2016-12-12T00:00:33.365Z,24.18
2016-12-12T00:01:01.378Z,24.14
2016-12-12T00:01:29.258Z,24.17
2016-12-12T00:01:57.102Z,24.18
2016-12-12T00:02:24.966Z,24.23
2016-12-12T00:02:52.864Z,24.2
2016-12-12T00:03:21.050Z,24.08
2016-12-12T00:03:49.041Z,24.11
2016-12-12T00:04:16.902Z,24.11
2016-12-12T00:04:44.712Z,24.16
2016-12-12T00:05:12.591Z,24.16
2016-12-12T00:05:40.412Z,24.16
2016-12-12T00:06:08.326Z,24.17
2016-12-12T00:06:36.258Z,24.14
2016-12-12T00:07:04.107Z,24.2
2016-12-12T00:07:31.953Z,24.17
2016-12-12T00:07:59.855Z,24.14
2016-12-12T00:08:27.888Z,24.18
2016-12-12T00:08:55.743Z,24.17
2016-12-12T00:09:23.578Z,24.16
2016-12-12T00:09:51.429Z,24.17
2016-12-12T00:10:19.270Z,24.2
2016-12-12T00:10:47.117Z,24.1
2016-12-12T00:11:14.933Z,24.14
2016-12-12T00:11:42.864Z,24.2
2016-12-12T00:12:10.807Z,24.11
2016-12-12T00:12:38.663Z,24.08
2016-12-12T00:13:06.681Z,24.06
2016-12-12T00:13:34.811Z,24.02
2016-12-12T00:14:02.666Z,23.98
2016-12-12T00:14:30.521Z,23.93
2016-12-12T00:14:58.380Z,23.96
2016-12-12T00:15:26.204Z,23.98
2016-12-12T00:15:54.050Z,24.01
2016-12-12T00:16:21.913Z,23.93
2016-12-12T00:16:49.734Z,23.96
2016-12-12T00:17:17.608Z,23.98
2016-12-12T00:17:45.491Z,24.01
2016-12-12T00:18:13.466Z,23.87
2016-12-12T00:18:41.551Z,23.84
2016-12-12T00:19:09.390Z,23.86
2016-12-12T00:19:37.332Z,23.84
2016-12-12T00:20:05.205Z,23.78
2016-12-12T00:20:33.174Z,23.96
2016-12-12T00:21:01.020Z,23.91
2016-12-12T00:21:28.927Z,23.92
2016-12-12T00:21:56.891Z,23.86
2016-12-12T00:22:24.758Z,23.99
2016-12-12T00:22:52.625Z,23.87
2016-12-12T00:23:20.717Z,23.81
2016-12-12T00:23:48.525Z,23.83
2016-12-12T00:24:16.403Z,23.87
2016-12-12T00:24:44.262Z,23.83
2016-12-12T00:25:12.126Z,23.87
2016-12-12T00:25:39.937Z,23.84
2016-12-12T00:26:07.850Z,23.93
2016-12-12T00:26:35.692Z,23.91
2016-12-12T00:27:03.579Z,23.93
2016-12-12T00:27:31.426Z,23.87
2016-12-12T00:27:59.323Z,23.87
2016-12-12T00:28:27.455Z,23.86
2016-12-12T00:28:55.261Z,23.93
2016-12-12T00:29:23.219Z,23.93
2016-12-12T00:29:51.067Z,23.91
2016-12-12T00:30:18.897Z,23.92
2016-12-12T00:30:46.744Z,23.88
2016-12-12T00:31:14.755Z,23.86
2016-12-12T00:31:42.705Z,23.77
2016-12-12T00:32:10.611Z,23.87
2016-12-12T00:32:38.504Z,23.84
2016-12-12T00:33:06.349Z,23.78
2016-12-12T00:33:34.422Z,23.81
2016-12-12T00:34:02.283Z,23.95
2016-12-12T00:34:30.196Z,24.01
2016-12-12T00:34:58.064Z,23.87
2016-12-12T00:35:25.937Z,23.95
2016-12-12T00:35:53.779Z,23.99
2016-12-12T00:36:21.583Z,23.93
2016-12-12T00:36:49.385Z,23.98
2016-12-12T00:37:17.240Z,23.95
2016-12-12T00:37:45.220Z,23.95
2016-12-12T00:38:13.041Z,23.87
2016-12-12T00:39:07.861Z,23.93
2016-12-12T00:39:36.445Z,23.93
2016-12-12T00:40:06.635Z,23.98
2016-12-12T00:40:36.250Z,23.92
2016-12-12T00:41:06.049Z,23.8
2016-12-12T00:41:36.139Z,23.91
2016-12-12T00:42:04.570Z,23.83
2016-12-12T00:42:36.324Z,23.84
2016-12-12T00:43:04.186Z,23.91
2016-12-12T00:43:32.074Z,23.91
2016-12-12T00:43:59.882Z,23.87
2016-12-12T00:44:27.946Z,23.84
2016-12-12T00:44:55.928Z,24.02
2016-12-12T00:45:23.854Z,23.87
2016-12-12T00:45:51.754Z,23.96
2016-12-12T00:46:19.584Z,23.87
2016-12-12T00:46:47.415Z,23.87
2016-12-12T00:47:15.305Z,23.87
2016-12-12T00:47:43.123Z,23.86
2016-12-12T00:48:10.953Z,23.81
2016-12-12T00:48:38.789Z,23.84
2016-12-12T00:49:06.730Z,23.84
2016-12-12T00:49:34.938Z,23.86
2016-12-12T00:50:02.781Z,23.83
2016-12-12T00:50:30.670Z,23.78
2016-12-12T00:50:58.549Z,23.88
2016-12-12T00:51:26.344Z,23.8
2016-12-12T00:51:54.217Z,23.84
2016-12-12T00:52:22.071Z,23.8
2016-12-12T00:52:49.927Z,23.84
2016-12-12T00:53:17.813Z,23.88
2016-12-12T00:53:45.621Z,23.86
2016-12-12T00:54:13.704Z,23.83
2016-12-12T00:54:41.562Z,23.93
2016-12-12T00:55:09.438Z,23.78
2016-12-12T00:55:37.270Z,23.86
2016-12-12T00:56:05.176Z,23.76
2016-12-12T00:56:33.088Z,23.83
2016-12-12T00:57:00.939Z,23.83
2016-12-12T00:57:28.823Z,23.81
2016-12-12T00:57:56.672Z,23.84
2016-12-12T00:58:24.529Z,23.86
2016-12-12T00:58:52.354Z,23.95
2016-12-12T00:59:20.499Z,23.87
2016-12-12T00:59:48.366Z,23.77
2016-12-12T01:00:16.202Z,23.8
2016-12-12T01:00:44.087Z,23.78
2016-12-12T01:01:11.959Z,23.91
2016-12-12T01:01:39.826Z,23.86
2016-12-12T01:02:07.670Z,23.86
2016-12-12T01:02:35.474Z,23.88
2016-12-12T01:03:03.325Z,23.86
2016-12-12T01:03:31.088Z,23.8
2016-12-12T01:03:58.960Z,23.87
2016-12-12T01:04:27.087Z,23.84
2016-12-12T01:04:54.960Z,23.86
2016-12-12T01:05:22.765Z,23.81
2016-12-12T01:05:50.722Z,23.74
2016-12-12T01:06:18.644Z,23.74
2016-12-12T01:06:46.500Z,23.8
2016-12-12T01:07:14.471Z,23.77
2016-12-12T01:07:42.423Z,23.77
2016-12-12T01:08:10.282Z,23.8
2016-12-12T01:08:38.196Z,23.8
2016-12-12T01:09:06.195Z,23.77
2016-12-12T01:09:34.352Z,23.76
2016-12-12T01:10:02.214Z,23.74
2016-12-12T01:10:30.058Z,23.81
2016-12-12T01:10:57.872Z,23.77
2016-12-12T01:11:25.838Z,23.87
2016-12-12T01:11:53.665Z,23.74
2016-12-12T01:12:21.488Z,23.78
2016-12-12T01:12:49.331Z,23.76
2016-12-12T01:13:17.275Z,23.74
2016-12-12T01:13:45.155Z,23.78
2016-12-12T01:14:13.005Z,23.74
2016-12-12T01:14:41.098Z,23.78
2016-12-12T01:15:09.005Z,23.77
2016-12-12T01:15:36.864Z,23.77
2016-12-12T01:16:04.893Z,23.81
2016-12-12T01:16:32.728Z,23.76
2016-12-12T01:17:00.597Z,23.78
2016-12-12T01:17:29.057Z,23.86
2016-12-12T01:17:56.975Z,23.87
2016-12-12T01:18:24.845Z,23.76
2016-12-12T01:18:52.694Z,23.83
2016-12-12T01:19:20.776Z,23.73
2016-12-12T01:19:48.634Z,23.76
2016-12-12T01:20:16.521Z,23.61
2016-12-12T01:20:44.447Z,23.65
2016-12-12T01:21:12.317Z,23.66
2016-12-12T01:21:40.464Z,23.73
2016-12-12T01:22:08.344Z,23.81
2016-12-12T01:22:36.191Z,23.69
2016-12-12T01:23:04.033Z,23.76
2016-12-12T01:23:31.871Z,23.84
2016-12-12T01:23:59.699Z,23.8
2016-12-12T01:24:27.819Z,23.74
2016-12-12T01:24:55.633Z,23.78
2016-12-12T01:25:23.563Z,23.81
2016-12-12T01:25:51.350Z,23.74
2016-12-12T01:26:19.245Z,23.78
2016-12-12T01:26:47.093Z,23.8
2016-12-12T01:27:14.936Z,23.74
2016-12-12T01:27:42.872Z,23.81
2016-12-12T01:28:10.730Z,23.8
2016-12-12T01:28:38.824Z,23.81
2016-12-12T01:29:06.832Z,23.87
2016-12-12T01:29:34.992Z,23.76
2016-12-12T01:30:02.825Z,23.71
2016-12-12T01:30:30.679Z,23.66
2016-12-12T01:30:58.507Z,23.73
2016-12-12T01:31:26.372Z,23.66
2016-12-12T01:31:54.345Z,23.69
2016-12-12T01:32:22.338Z,23.61
2016-12-12T01:32:50.257Z,23.63
2016-12-12T01:33:18.128Z,23.59
2016-12-12T01:33:45.979Z,23.54
2016-12-12T01:34:13.880Z,23.56
2016-12-12T01:34:41.887Z,23.51
2016-12-12T01:35:09.723Z,23.48
2016-12-12T01:35:37.559Z,23.46
2016-12-12T01:36:05.427Z,23.5
2016-12-12T01:36:33.337Z,23.54
2016-12-12T01:37:01.190Z,23.61
2016-12-12T01:37:29.217Z,23.62
2016-12-12T01:37:57.169Z,23.66
2016-12-12T01:38:25.023Z,23.63
2016-12-12T01:38:52.914Z,23.61
2016-12-12T01:39:20.760Z,23.63
2016-12-12T01:39:48.794Z,23.58
2016-12-12T01:40:16.760Z,23.62
2016-12-12T01:40:44.680Z,23.51
2016-12-12T01:41:12.613Z,23.54
2016-12-12T01:41:40.473Z,23.66
2016-12-12T01:42:08.319Z,23.58
2016-12-12T01:42:36.282Z,23.51
2016-12-12T01:43:04.147Z,23.48
2016-12-12T01:43:32.000Z,23.55
2016-12-12T01:43:59.871Z,23.44
2016-12-12T01:44:28.060Z,23.5
2016-12-12T01:44:55.901Z,23.48
2016-12-12T01:45:23.936Z,23.47
2016-12-12T01:45:51.759Z,23.46
2016-12-12T01:46:19.629Z,23.56
2016-12-12T01:46:47.506Z,23.54
2016-12-12T01:47:15.370Z,23.59
2016-12-12T01:47:43.212Z,23.51
2016-12-12T01:48:11.065Z,23.54
2016-12-12T01:48:38.936Z,23.54
2016-12-12T01:49:06.810Z,23.63
2016-12-12T01:49:34.837Z,23.61
2016-12-12T01:50:02.672Z,23.61
2016-12-12T01:50:30.518Z,23.59
2016-12-12T01:50:58.410Z,23.59
2016-12-12T01:51:26.302Z,23.56
2016-12-12T01:51:54.193Z,23.58
2016-12-12T01:52:22.063Z,23.65
2016-12-12T01:52:49.920Z,23.65
2016-12-12T01:53:17.764Z,23.68
2016-12-12T01:53:45.603Z,23.66
2016-12-12T01:54:13.469Z,23.65
2016-12-12T01:54:41.633Z,23.66
2016-12-12T01:55:09.531Z,23.63
2016-12-12T01:55:37.433Z,23.69
2016-12-12T01:56:05.321Z,23.63
2016-12-12T01:56:33.220Z,23.63
2016-12-12T01:57:01.104Z,23.63
2016-12-12T01:57:28.974Z,23.71
2016-12-12T01:57:56.766Z,23.66
2016-12-12T01:58:24.613Z,23.65
2016-12-12T01:58:52.473Z,23.63
2016-12-12T01:59:20.313Z,23.66
2016-12-12T01:59:48.556Z,23.63
2016-12-12T02:00:16.431Z,23.76
2016-12-12T02:00:44.424Z,23.69
2016-12-12T02:01:12.299Z,23.66
2016-12-12T02:01:40.187Z,23.62
2016-12-12T02:02:08.096Z,23.65
2016-12-12T02:02:35.931Z,23.66
2016-12-12T02:03:03.808Z,23.66
2016-12-12T02:03:31.656Z,23.74
2016-12-12T02:03:59.497Z,23.61
2016-12-12T02:04:27.528Z,23.69
2016-12-12T02:04:55.728Z,23.71
2016-12-12T02:05:23.657Z,23.68
2016-12-12T02:05:51.468Z,23.77
2016-12-12T02:06:19.283Z,23.66
2016-12-12T02:06:47.093Z,23.68
2016-12-12T02:07:15.025Z,23.77
2016-12-12T02:07:42.859Z,23.73
2016-12-12T02:08:10.751Z,23.73
2016-12-12T02:08:38.623Z,23.73
2016-12-12T02:09:06.502Z,23.74
2016-12-12T02:09:34.551Z,23.77
2016-12-12T02:10:02.388Z,23.71
2016-12-12T02:10:30.267Z,23.76
2016-12-12T02:10:58.114Z,23.66
2016-12-12T02:11:25.952Z,23.73
2016-12-12T02:11:53.841Z,23.69
2016-12-12T02:12:21.696Z,23.71
2016-12-12T02:12:49.580Z,23.74
2016-12-12T02:13:17.536Z,23.73
2016-12-12T02:13:45.400Z,23.76
2016-12-12T02:14:13.286Z,23.78
2016-12-12T02:14:41.339Z,23.73
2016-12-12T02:15:09.177Z,23.78
2016-12-12T02:15:37.008Z,23.8
2016-12-12T02:16:04.879Z,23.69
2016-12-12T02:16:32.748Z,23.74
2016-12-12T02:17:00.641Z,23.71
2016-12-12T02:17:28.550Z,23.71
2016-12-12T02:17:56.494Z,23.71
2016-12-12T02:18:24.301Z,23.66
2016-12-12T02:18:52.124Z,23.73
2016-12-12T02:19:19.985Z,23.63
2016-12-12T02:19:47.998Z,23.61
2016-12-12T02:20:15.886Z,23.54
2016-12-12T02:20:43.739Z,23.55
2016-12-12T02:21:11.542Z,23.51
2016-12-12T02:21:39.411Z,23.47
2016-12-12T02:22:07.249Z,23.5
2016-12-12T02:22:35.062Z,23.51
2016-12-12T02:23:03.072Z,23.46
2016-12-12T02:23:30.957Z,23.44
2016-12-12T02:23:58.806Z,23.47
2016-12-12T02:24:26.626Z,23.54
2016-12-12T02:24:54.744Z,23.51
2016-12-12T02:25:22.576Z,23.58
2016-12-12T02:25:50.467Z,23.58
2016-12-12T02:26:18.353Z,23.63
2016-12-12T02:26:46.216Z,23.62
2016-12-12T02:27:14.024Z,23.65
2016-12-12T02:27:41.911Z,23.62
2016-12-12T02:28:09.714Z,23.66
2016-12-12T02:28:37.591Z,23.59
2016-12-12T02:29:05.407Z,23.63
2016-12-12T02:29:33.282Z,23.63
2016-12-12T02:30:01.432Z,23.66
2016-12-12T02:30:29.213Z,23.58
2016-12-12T02:30:57.177Z,23.51
2016-12-12T02:31:25.057Z,23.47
2016-12-12T02:31:52.871Z,23.48
2016-12-12T02:32:20.715Z,23.51
2016-12-12T02:32:48.524Z,23.54
2016-12-12T02:33:16.355Z,23.56
2016-12-12T02:33:44.238Z,23.56
2016-12-12T02:34:12.066Z,23.47
2016-12-12T02:34:40.086Z,23.56
2016-12-12T02:35:07.948Z,23.43
2016-12-12T02:35:35.851Z,23.48
2016-12-12T02:36:03.638Z,23.55
2016-12-12T02:36:31.520Z,23.48
2016-12-12T02:36:59.390Z,23.41
2016-12-12T02:37:27.227Z,23.43
2016-12-12T02:37:55.094Z,23.4
2016-12-12T02:38:22.917Z,23.39
2016-12-12T02:38:51.314Z,23.44
2016-12-12T02:39:19.158Z,23.46
2016-12-12T02:39:47.203Z,23.46
2016-12-12T02:40:15.220Z,23.43
2016-12-12T02:40:43.061Z,23.48
2016-12-12T02:41:10.879Z,23.34
2016-12-12T02:41:38.735Z,23.43
2016-12-12T02:42:06.565Z,23.36
2016-12-12T02:42:34.446Z,23.36
2016-12-12T02:43:02.290Z,23.41
2016-12-12T02:43:30.096Z,23.39
2016-12-12T02:43:57.958Z,23.41
2016-12-12T02:44:25.825Z,23.37
2016-12-12T02:44:53.888Z,23.4
2016-12-12T02:45:21.711Z,23.39
2016-12-12T02:45:49.574Z,23.41
2016-12-12T02:46:17.449Z,23.48
2016-12-12T02:46:45.296Z,23.43
2016-12-12T02:47:13.071Z,23.41
2016-12-12T02:47:40.946Z,23.44
2016-12-12T02:48:08.806Z,23.5
2016-12-12T02:48:36.679Z,23.46
2016-12-12T02:49:04.547Z,23.51
2016-12-12T02:49:32.363Z,23.54
2016-12-12T02:50:00.452Z,23.48
2016-12-12T02:50:28.305Z,23.44
2016-12-12T02:50:56.144Z,23.4
2016-12-12T02:51:24.040Z,23.44
2016-12-12T02:51:51.904Z,23.44
2016-12-12T02:52:19.801Z,23.51
2016-12-12T02:52:47.649Z,23.43
2016-12-12T02:53:15.555Z,23.48
2016-12-12T02:53:43.369Z,23.48
2016-12-12T02:54:11.185Z,23.4
2016-12-12T02:54:39.039Z,23.44
2016-12-12T02:55:07.098Z,23.43
2016-12-12T02:55:34.963Z,23.44
2016-12-12T02:56:02.805Z,23.47
2016-12-12T02:56:30.659Z,23.5
2016-12-12T02:56:58.502Z,23.44
2016-12-12T02:57:26.436Z,23.47
2016-12-12T02:57:54.285Z,23.44
2016-12-12T02:58:22.145Z,23.5
2016-12-12T02:58:50.000Z,23.51
2016-12-12T02:59:17.947Z,23.47
2016-12-12T02:59:45.807Z,23.51
2016-12-12T03:00:13.890Z,23.44
2016-12-12T03:00:41.746Z,23.54
2016-12-12T03:01:09.612Z,23.55
2016-12-12T03:01:37.449Z,23.54
2016-12-12T03:02:05.281Z,23.47
2016-12-12T03:02:33.262Z,23.54
2016-12-12T03:03:01.128Z,23.62
2016-12-12T03:03:28.958Z,23.61
2016-12-12T03:03:56.810Z,23.59
2016-12-12T03:04:24.655Z,23.55
2016-12-12T03:04:52.747Z,23.61
2016-12-12T03:05:20.587Z,23.54
2016-12-12T03:05:48.424Z,23.56
2016-12-12T03:06:16.257Z,23.5
2016-12-12T03:06:44.104Z,23.55
2016-12-12T03:07:12.021Z,23.5
2016-12-12T03:07:39.894Z,23.47
2016-12-12T03:08:07.728Z,23.47
2016-12-12T03:08:35.585Z,23.54
2016-12-12T03:09:03.440Z,23.51
2016-12-12T03:09:31.278Z,23.5
2016-12-12T03:09:59.315Z,23.46
2016-12-12T03:10:27.212Z,23.47
2016-12-12T03:10:55.072Z,23.44
2016-12-12T03:11:22.937Z,23.48
2016-12-12T03:11:50.790Z,23.48
2016-12-12T03:12:18.652Z,23.5
2016-12-12T03:12:46.492Z,23.48
2016-12-12T03:13:14.350Z,23.55
2016-12-12T03:13:42.295Z,23.5
2016-12-12T03:14:10.173Z,23.55
2016-12-12T03:14:38.078Z,23.54
2016-12-12T03:15:06.168Z,23.56
2016-12-12T03:15:33.995Z,23.56
2016-12-12T03:16:01.876Z,23.51
2016-12-12T03:16:29.752Z,23.55
2016-12-12T03:16:57.622Z,23.54
2016-12-12T03:17:25.457Z,23.56
2016-12-12T03:17:53.305Z,23.54
2016-12-12T03:18:21.210Z,23.5
2016-12-12T03:18:49.089Z,23.56
2016-12-12T03:19:16.896Z,23.55
2016-12-12T03:19:44.733Z,23.54
2016-12-12T03:20:12.826Z,23.55
2016-12-12T03:20:40.695Z,23.51
2016-12-12T03:21:08.546Z,23.44
2016-12-12T03:21:36.413Z,23.5
2016-12-12T03:22:04.295Z,23.54
2016-12-12T03:22:32.134Z,23.48
2016-12-12T03:22:59.955Z,23.54
2016-12-12T03:23:27.848Z,23.55
2016-12-12T03:23:55.646Z,23.46
2016-12-12T03:24:23.492Z,23.58
2016-12-12T03:24:51.342Z,23.48
2016-12-12T03:25:19.388Z,23.47
2016-12-12T03:25:47.239Z,23.5
2016-12-12T03:26:15.079Z,23.48
2016-12-12T03:26:42.948Z,23.46
2016-12-12T03:27:10.739Z,23.46
2016-12-12T03:27:38.526Z,23.48
2016-12-12T03:28:06.384Z,23.55
2016-12-12T03:28:34.235Z,23.54
2016-12-12T03:29:02.053Z,23.54
2016-12-12T03:29:29.832Z,23.5
2016-12-12T03:29:57.982Z,23.59
2016-12-12T03:30:25.840Z,23.55
2016-12-12T03:30:53.715Z,23.56
2016-12-12T03:31:21.541Z,23.54
2016-12-12T03:31:49.407Z,23.61
2016-12-12T03:32:17.215Z,23.56
2016-12-12T03:32:45.067Z,23.61
2016-12-12T03:33:12.908Z,23.66
2016-12-12T03:33:40.760Z,23.61
2016-12-12T03:34:08.677Z,23.59
2016-12-12T03:34:36.513Z,23.61
2016-12-12T03:35:04.548Z,23.65
2016-12-12T03:35:32.401Z,23.62
2016-12-12T03:36:00.207Z,23.59
2016-12-12T03:36:28.051Z,23.56
2016-12-12T03:36:55.918Z,23.62
2016-12-12T03:37:23.786Z,23.61
2016-12-12T03:37:51.631Z,23.55
2016-12-12T03:38:19.609Z,23.54
2016-12-12T03:38:47.524Z,23.63
2016-12-12T03:39:15.444Z,23.61
2016-12-12T03:39:43.340Z,23.65
2016-12-12T03:40:11.385Z,23.58
2016-12-12T03:40:39.236Z,23.55
2016-12-12T03:41:07.110Z,23.55
2016-12-12T03:41:34.922Z,23.47
2016-12-12T03:42:02.765Z,23.47
2016-12-12T03:42:30.644Z,23.43
2016-12-12T03:42:58.503Z,23.48
2016-12-12T03:43:26.378Z,23.55
2016-12-12T03:43:54.208Z,23.5
2016-12-12T03:44:22.058Z,23.47
2016-12-12T03:44:49.874Z,23.44
2016-12-12T03:45:17.945Z,23.47
2016-12-12T03:45:45.917Z,23.5
2016-12-12T03:46:13.790Z,23.58
2016-12-12T03:46:41.638Z,23.55
2016-12-12T03:47:09.514Z,23.56
2016-12-12T03:47:37.382Z,23.56
2016-12-12T03:48:05.218Z,23.47
2016-12-12T03:48:33.059Z,23.58
2016-12-12T03:49:00.891Z,23.51
2016-12-12T03:49:28.740Z,23.55
2016-12-12T03:49:56.561Z,23.54
2016-12-12T03:50:24.644Z,23.55
2016-12-12T03:50:52.476Z,23.54
2016-12-12T03:51:20.290Z,23.54
2016-12-12T03:51:48.102Z,23.51
2016-12-12T03:52:15.961Z,23.47
2016-12-12T03:52:43.892Z,23.48
2016-12-12T03:53:11.773Z,23.46
2016-12-12T03:53:39.653Z,23.41
2016-12-12T03:54:07.493Z,23.41
2016-12-12T03:54:35.379Z,23.41
2016-12-12T03:55:03.273Z,23.43
2016-12-12T03:55:31.336Z,23.36
2016-12-12T03:55:59.190Z,23.43
2016-12-12T03:56:27.014Z,23.41
2016-12-12T03:56:54.837Z,23.41
2016-12-12T03:57:22.674Z,23.44
2016-12-12T03:57:50.504Z,23.47
2016-12-12T03:58:18.500Z,23.47
2016-12-12T03:58:46.367Z,23.48
2016-12-12T03:59:14.211Z,23.51
2016-12-12T03:59:42.042Z,23.46
2016-12-12T04:00:09.907Z,23.46
2016-12-12T04:00:37.977Z,23.48
2016-12-12T04:01:05.797Z,23.43
2016-12-12T04:01:33.637Z,23.46
2016-12-12T04:02:01.542Z,23.46
2016-12-12T04:02:29.417Z,23.46
2016-12-12T04:02:57.327Z,23.51
2016-12-12T04:03:25.263Z,23.44
2016-12-12T04:03:53.156Z,23.46
2016-12-12T04:04:20.981Z,23.44
2016-12-12T04:04:48.861Z,23.5
2016-12-12T04:05:16.906Z,23.51
2016-12-12T04:05:44.727Z,23.55
2016-12-12T04:06:12.581Z,23.48
2016-12-12T04:06:40.430Z,23.51
2016-12-12T04:07:08.296Z,23.54
2016-12-12T04:07:36.254Z,23.5
2016-12-12T04:08:04.064Z,23.43
2016-12-12T04:08:31.916Z,23.47
2016-12-12T04:08:59.776Z,23.44
2016-12-12T04:09:27.605Z,23.51
2016-12-12T04:09:55.462Z,23.44
2016-12-12T04:10:23.508Z,23.4
2016-12-12T04:10:51.380Z,23.41
2016-12-12T04:11:19.343Z,23.41
2016-12-12T04:11:47.186Z,23.41
2016-12-12T04:12:15.057Z,23.4
2016-12-12T04:12:42.928Z,23.4
2016-12-12T04:13:10.764Z,23.47
2016-12-12T04:13:38.630Z,23.46
2016-12-12T04:14:06.507Z,23.47
2016-12-12T04:14:34.329Z,23.47
2016-12-12T04:15:02.187Z,23.47
2016-12-12T04:15:30.207Z,23.41
2016-12-12T04:15:58.117Z,23.44
2016-12-12T04:16:25.984Z,23.4
2016-12-12T04:16:53.800Z,23.47
2016-12-12T04:17:21.653Z,23.4
2016-12-12T04:17:49.542Z,23.39
2016-12-12T04:18:17.381Z,23.43
2016-12-12T04:18:45.252Z,23.39
2016-12-12T04:19:13.101Z,23.46
2016-12-12T04:19:40.961Z,23.41
2016-12-12T04:20:08.813Z,23.44
2016-12-12T04:20:36.989Z,23.47
2016-12-12T04:21:04.916Z,23.43
2016-12-12T04:21:32.886Z,23.46
2016-12-12T04:22:00.711Z,23.44
2016-12-12T04:22:28.563Z,23.46
2016-12-12T04:22:56.427Z,23.4
2016-12-12T04:23:24.305Z,23.4
2016-12-12T04:23:52.256Z,23.41
2016-12-12T04:24:20.234Z,23.47
2016-12-12T04:24:48.231Z,23.46
2016-12-12T04:25:16.054Z,23.44
2016-12-12T04:25:44.130Z,23.44
2016-12-12T04:26:11.989Z,23.44
2016-12-12T04:26:39.941Z,23.44
2016-12-12T04:27:07.806Z,23.44
2016-12-12T04:27:35.601Z,23.46
2016-12-12T04:28:03.447Z,23.47
2016-12-12T04:28:31.279Z,23.44
2016-12-12T04:28:59.146Z,23.4
2016-12-12T04:29:27.024Z,23.44
2016-12-12T04:29:54.841Z,23.4
2016-12-12T04:30:22.675Z,23.4
2016-12-12T04:30:50.780Z,23.37
2016-12-12T04:31:18.628Z,23.4
2016-12-12T04:31:46.475Z,23.4
2016-12-12T04:32:14.301Z,23.43
2016-12-12T04:32:42.168Z,23.37
2016-12-12T04:33:10.025Z,23.41
2016-12-12T04:33:37.897Z,23.4
2016-12-12T04:34:05.750Z,23.43
2016-12-12T04:34:33.545Z,23.39
2016-12-12T04:35:01.420Z,23.46
2016-12-12T04:35:29.537Z,23.43
2016-12-12T04:35:57.387Z,23.5
2016-12-12T04:36:25.238Z,23.5
2016-12-12T04:36:53.142Z,23.44
2016-12-12T04:37:20.982Z,23.47
2016-12-12T04:37:48.829Z,23.48
2016-12-12T04:38:16.706Z,23.43
2016-12-12T04:38:44.554Z,23.43
2016-12-12T04:39:12.498Z,23.43
2016-12-12T04:39:40.307Z,23.39
2016-12-12T04:40:08.187Z,23.43
2016-12-12T04:40:36.236Z,23.36
2016-12-12T04:41:04.096Z,23.41
2016-12-12T04:41:32.083Z,23.46
2016-12-12T04:41:59.967Z,23.43
2016-12-12T04:42:27.927Z,23.4
2016-12-12T04:42:55.780Z,23.47
2016-12-12T04:43:23.622Z,23.48
2016-12-12T04:43:51.476Z,23.41
2016-12-12T04:44:19.287Z,23.41
2016-12-12T04:44:47.115Z,23.43
2016-12-12T04:45:14.940Z,23.4
2016-12-12T04:45:43.174Z,23.46
2016-12-12T04:46:11.220Z,23.4
2016-12-12T04:46:39.086Z,23.37
2016-12-12T04:47:06.954Z,23.41
2016-12-12T04:47:34.823Z,23.4
2016-12-12T04:48:02.665Z,23.46
2016-12-12T04:48:30.604Z,23.46
2016-12-12T04:48:58.469Z,23.47
2016-12-12T04:49:26.357Z,23.46
2016-12-12T04:49:54.219Z,23.41
2016-12-12T04:50:22.083Z,23.46
2016-12-12T04:50:50.158Z,23.44
2016-12-12T04:51:17.967Z,23.43
2016-12-12T04:51:45.766Z,23.37
2016-12-12T04:52:13.603Z,23.43
2016-12-12T04:52:41.401Z,23.32
2016-12-12T04:53:09.349Z,23.36
2016-12-12T04:53:37.231Z,23.31
2016-12-12T04:54:05.063Z,23.44
2016-12-12T04:54:32.889Z,23.41
2016-12-12T04:55:00.697Z,23.48
2016-12-12T04:55:28.577Z,23.44
2016-12-12T04:55:56.653Z,23.41
2016-12-12T04:56:24.515Z,23.39
2016-12-12T04:56:52.380Z,23.41
2016-12-12T04:57:20.229Z,23.43
2016-12-12T04:57:48.189Z,23.4
2016-12-12T04:58:16.088Z,23.46
2016-12-12T04:58:43.927Z,23.36
2016-12-12T04:59:11.758Z,23.37
2016-12-12T04:59:39.640Z,23.43
2016-12-12T05:00:07.481Z,23.4
2016-12-12T05:00:35.547Z,23.46
2016-12-12T05:01:03.386Z,23.4
2016-12-12T05:01:31.262Z,23.54
2016-12-12T05:01:59.119Z,23.47
2016-12-12T05:02:26.959Z,23.47
2016-12-12T05:02:54.834Z,23.48
2016-12-12T05:03:22.810Z,23.55
2016-12-12T05:03:50.710Z,23.47
2016-12-12T05:04:18.618Z,23.54
2016-12-12T05:04:46.477Z,23.47
2016-12-12T05:05:14.310Z,23.47
2016-12-12T05:05:42.371Z,23.47
2016-12-12T05:06:10.279Z,23.54
2016-12-12T05:06:38.134Z,23.46
2016-12-12T05:07:05.941Z,23.48
2016-12-12T05:07:33.774Z,23.51
2016-12-12T05:08:01.567Z,23.55
2016-12-12T05:08:29.465Z,23.5
2016-12-12T05:08:57.325Z,23.43
2016-12-12T05:09:25.160Z,23.47
2016-12-12T05:09:53.051Z,23.47
2016-12-12T05:10:20.868Z,23.46
2016-12-12T05:10:48.952Z,23.4
2016-12-12T05:11:16.783Z,23.4
2016-12-12T05:11:44.590Z,23.39
2016-12-12T05:12:12.453Z,23.34
2016-12-12T05:12:40.267Z,23.46
2016-12-12T05:13:08.107Z,23.39
2016-12-12T05:13:36.047Z,23.48
2016-12-12T05:14:03.880Z,23.41
2016-12-12T05:14:31.750Z,23.4
2016-12-12T05:14:59.621Z,23.39
2016-12-12T05:15:27.483Z,23.32
2016-12-12T05:15:55.495Z,23.4
2016-12-12T05:16:23.338Z,23.39
2016-12-12T05:16:51.233Z,23.43
2016-12-12T05:17:19.052Z,23.44
2016-12-12T05:17:46.914Z,23.37
2016-12-12T05:18:14.836Z,23.43
2016-12-12T05:18:42.666Z,23.4
2016-12-12T05:19:10.511Z,23.39
2016-12-12T05:19:38.330Z,23.37
2016-12-12T05:20:06.168Z,23.39
2016-12-12T05:20:33.991Z,23.37
2016-12-12T05:21:02.138Z,23.39
2016-12-12T05:21:29.969Z,23.43
2016-12-12T05:21:57.845Z,23.36
2016-12-12T05:22:25.692Z,23.41
2016-12-12T05:22:53.547Z,23.36
2016-12-12T05:23:21.468Z,23.43
2016-12-12T05:23:49.304Z,23.4
2016-12-12T05:24:17.103Z,23.41
2016-12-12T05:24:44.936Z,23.37
2016-12-12T05:25:12.814Z,23.39
2016-12-12T05:25:40.856Z,23.43
2016-12-12T05:26:08.770Z,23.39
2016-12-12T05:26:36.615Z,23.36
2016-12-12T05:27:04.447Z,23.44
2016-12-12T05:27:32.334Z,23.36
2016-12-12T05:28:00.149Z,23.44
2016-12-12T05:28:27.999Z,23.31
2016-12-12T05:28:55.783Z,23.4
2016-12-12T05:29:23.606Z,23.32
2016-12-12T05:29:51.553Z,23.39
2016-12-12T05:30:19.441Z,23.37
2016-12-12T05:30:47.599Z,23.27
2016-12-12T05:31:15.532Z,23.31
2016-12-12T05:31:43.461Z,23.25
2016-12-12T05:32:11.410Z,23.27
2016-12-12T05:32:39.350Z,23.25
2016-12-12T05:33:07.204Z,23.27
2016-12-12T05:33:35.201Z,23.28
2016-12-12T05:34:03.096Z,23.25
2016-12-12T05:34:31.049Z,23.31
2016-12-12T05:34:59.017Z,23.24
2016-12-12T05:35:26.854Z,23.23
2016-12-12T05:35:54.977Z,23.21
2016-12-12T05:36:22.927Z,23.32
2016-12-12T05:36:50.850Z,23.27
2016-12-12T05:37:18.691Z,23.21
2016-12-12T05:37:47.107Z,23.28
2016-12-12T05:38:15.115Z,23.25
2016-12-12T05:38:42.960Z,23.21
2016-12-12T05:39:10.884Z,23.28
2016-12-12T05:39:38.764Z,23.24
2016-12-12T05:40:06.566Z,23.31
2016-12-12T05:40:34.439Z,23.17
2016-12-12T05:41:02.685Z,23.21
2016-12-12T05:41:30.717Z,23.23
2016-12-12T05:41:58.541Z,23.21
2016-12-12T05:42:26.444Z,23.27
2016-12-12T05:42:54.313Z,23.24
2016-12-12T05:43:22.149Z,23.17
2016-12-12T05:43:50.022Z,23.27
2016-12-12T05:44:17.816Z,23.24
2016-12-12T05:44:45.681Z,23.31
2016-12-12T05:45:13.688Z,23.21
2016-12-12T05:45:41.643Z,23.24
2016-12-12T05:46:09.705Z,23.4
2016-12-12T05:46:37.560Z,23.4
2016-12-12T05:47:05.394Z,23.32
2016-12-12T05:47:33.211Z,23.28
2016-12-12T05:48:01.055Z,23.31
2016-12-12T05:48:28.940Z,23.28
2016-12-12T05:48:56.758Z,23.37
2016-12-12T05:49:24.585Z,23.36
2016-12-12T05:49:52.432Z,23.25
2016-12-12T05:50:20.263Z,23.36
2016-12-12T05:50:48.049Z,23.23
2016-12-12T05:51:16.192Z,23.32
2016-12-12T05:51:44.016Z,23.21
2016-12-12T05:52:11.856Z,23.27
2016-12-12T05:52:39.719Z,23.28
2016-12-12T05:53:07.567Z,23.23
2016-12-12T05:53:35.442Z,23.21
2016-12-12T05:54:03.318Z,23.25
2016-12-12T05:54:31.190Z,23.23
2016-12-12T05:54:59.019Z,23.32
2016-12-12T05:55:26.824Z,23.31
2016-12-12T05:55:54.830Z,23.23
2016-12-12T05:56:22.670Z,23.34
2016-12-12T05:56:50.504Z,23.28
2016-12-12T05:57:18.357Z,23.25
2016-12-12T05:57:46.206Z,23.39
2016-12-12T05:58:14.159Z,23.34
2016-12-12T05:58:42.010Z,23.39
2016-12-12T05:59:09.906Z,23.44
2016-12-12T05:59:37.733Z,23.43
2016-12-12T06:00:05.569Z,23.34
2016-12-12T06:00:33.456Z,23.39
2016-12-12T06:01:01.536Z,23.36